sensor_id;sensor_type;location;lat;lon;timestamp;P1;durP1;ratioP1;P2;durP2;ratioP2
20545;SDS011;10431;50.228;9.112;2023-11-18T00:01:25;3.08;;;1.70;;
20545;SDS011;10431;50.228;9.112;2023-11-18T00:03:56;3.70;;;1.85;;
20545;SDS011;10431;50.228;9.112;2023-11-18T00:06:22;5.28;;;1.80;;
20545;SDS011;10431;50.228;9.112;2023-11-18T00:08:48;2.70;;;1.80;;
20545;SDS011;10431;50.228;9.112;2023-11-18T00:11:15;3.15;;;1.90;;
20545;SDS011;10431;50.228;9.112;2023-11-18T00:13:41;2.30;;;1.60;;
20545;SDS011;10431;50.228;9.112;2023-11-18T00:16:08;3.70;;;2.08;;
20545;SDS011;10431;50.228;9.112;2023-11-18T00:18:38;4.88;;;1.85;;
20545;SDS011;10431;50.228;9.112;2023-11-18T00:21:05;3.78;;;2.15;;
20545;SDS011;10431;50.228;9.112;2023-11-18T00:23:33;4.18;;;1.70;;
20545;SDS011;10431;50.228;9.112;2023-11-18T00:26:00;3.08;;;1.80;;
20545;SDS011;10431;50.228;9.112;2023-11-18T00:28:27;3.25;;;1.80;;
20545;SDS011;10431;50.228;9.112;2023-11-18T00:30:54;4.97;;;1.92;;
20545;SDS011;10431;50.228;9.112;2023-11-18T00:33:20;2.90;;;1.73;;
20545;SDS011;10431;50.228;9.112;2023-11-18T00:35:47;3.17;;;1.95;;
20545;SDS011;10431;50.228;9.112;2023-11-18T00:38:13;4.45;;;1.92;;
20545;SDS011;10431;50.228;9.112;2023-11-18T00:40:39;3.10;;;1.73;;
20545;SDS011;10431;50.228;9.112;2023-11-18T00:43:05;2.63;;;1.67;;
20545;SDS011;10431;50.228;9.112;2023-11-18T00:45:33;3.65;;;1.80;;
20545;SDS011;10431;50.228;9.112;2023-11-18T00:48:00;3.72;;;1.80;;
20545;SDS011;10431;50.228;9.112;2023-11-18T00:50:26;2.33;;;1.63;;
20545;SDS011;10431;50.228;9.112;2023-11-18T00:52:52;1.98;;;1.60;;
20545;SDS011;10431;50.228;9.112;2023-11-18T00:55:18;2.67;;;1.75;;
20545;SDS011;10431;50.228;9.112;2023-11-18T00:57:45;2.72;;;1.83;;
20545;SDS011;10431;50.228;9.112;2023-11-18T01:00:12;2.80;;;1.73;;
20545;SDS011;10431;50.228;9.112;2023-11-18T01:02:44;1.70;;;1.42;;
20545;SDS011;10431;50.228;9.112;2023-11-18T01:05:12;2.05;;;1.77;;
20545;SDS011;10431;50.228;9.112;2023-11-18T01:07:39;2.33;;;1.77;;
20545;SDS011;10431;50.228;9.112;2023-11-18T01:10:09;3.22;;;1.70;;
20545;SDS011;10431;50.228;9.112;2023-11-18T01:12:36;2.72;;;1.70;;
20545;SDS011;10431;50.228;9.112;2023-11-18T01:15:02;1.80;;;1.70;;
20545;SDS011;10431;50.228;9.112;2023-11-18T01:17:29;2.80;;;1.70;;
20545;SDS011;10431;50.228;9.112;2023-11-18T01:19:58;2.20;;;1.70;;
20545;SDS011;10431;50.228;9.112;2023-11-18T01:22:24;2.83;;;1.50;;
20545;SDS011;10431;50.228;9.112;2023-11-18T01:24:51;3.35;;;1.80;;
20545;SDS011;10431;50.228;9.112;2023-11-18T01:27:17;5.65;;;1.70;;
20545;SDS011;10431;50.228;9.112;2023-11-18T01:29:45;4.93;;;1.70;;
20545;SDS011;10431;50.228;9.112;2023-11-18T01:32:12;2.95;;;1.67;;
20545;SDS011;10431;50.228;9.112;2023-11-18T01:34:39;2.10;;;1.40;;
20545;SDS011;10431;50.228;9.112;2023-11-18T01:37:06;2.88;;;2.03;;
20545;SDS011;10431;50.228;9.112;2023-11-18T01:39:34;2.85;;;1.73;;
20545;SDS011;10431;50.228;9.112;2023-11-18T01:42:00;4.05;;;1.83;;
20545;SDS011;10431;50.228;9.112;2023-11-18T01:44:27;1.95;;;1.67;;
20545;SDS011;10431;50.228;9.112;2023-11-18T01:46:54;2.42;;;1.67;;
20545;SDS011;10431;50.228;9.112;2023-11-18T01:49:22;1.90;;;1.48;;
20545;SDS011;10431;50.228;9.112;2023-11-18T01:51:49;2.30;;;1.60;;
20545;SDS011;10431;50.228;9.112;2023-11-18T01:54:19;2.38;;;1.75;;
20545;SDS011;10431;50.228;9.112;2023-11-18T01:56:50;2.00;;;1.70;;
20545;SDS011;10431;50.228;9.112;2023-11-18T01:59:17;2.33;;;1.52;;
20545;SDS011;10431;50.228;9.112;2023-11-18T02:01:48;2.72;;;1.90;;
20545;SDS011;10431;50.228;9.112;2023-11-18T02:04:17;1.63;;;1.45;;
20545;SDS011;10431;50.228;9.112;2023-11-18T02:06:45;3.10;;;1.70;;
20545;SDS011;10431;50.228;9.112;2023-11-18T02:09:14;4.20;;;1.80;;
20545;SDS011;10431;50.228;9.112;2023-11-18T02:11:45;2.90;;;1.60;;
20545;SDS011;10431;50.228;9.112;2023-11-18T02:14:20;3.30;;;1.83;;
20545;SDS011;10431;50.228;9.112;2023-11-18T02:16:48;3.25;;;1.77;;
20545;SDS011;10431;50.228;9.112;2023-11-18T02:19:19;2.75;;;1.50;;
20545;SDS011;10431;50.228;9.112;2023-11-18T02:21:50;2.80;;;1.80;;
20545;SDS011;10431;50.228;9.112;2023-11-18T02:24:29;2.85;;;1.60;;
20545;SDS011;10431;50.228;9.112;2023-11-18T02:26:57;2.72;;;1.75;;
20545;SDS011;10431;50.228;9.112;2023-11-18T02:29:25;3.30;;;1.50;;
20545;SDS011;10431;50.228;9.112;2023-11-18T02:32:13;2.47;;;1.60;;
20545;SDS011;10431;50.228;9.112;2023-11-18T02:35:23;4.32;;;1.63;;
20545;SDS011;10431;50.228;9.112;2023-11-18T02:37:52;1.75;;;1.60;;
20545;SDS011;10431;50.228;9.112;2023-11-18T02:40:55;2.63;;;1.50;;
20545;SDS011;10431;50.228;9.112;2023-11-18T02:43:16;2.22;;;1.55;;
20545;SDS011;10431;50.228;9.112;2023-11-18T02:45:44;3.22;;;1.60;;
20545;SDS011;10431;50.228;9.112;2023-11-18T02:48:12;2.60;;;1.55;;
20545;SDS011;10431;50.228;9.112;2023-11-18T02:50:40;3.17;;;1.70;;
20545;SDS011;10431;50.228;9.112;2023-11-18T02:53:08;1.58;;;1.30;;
20545;SDS011;10431;50.228;9.112;2023-11-18T02:55:35;1.92;;;1.42;;
20545;SDS011;10431;50.228;9.112;2023-11-18T02:58:01;1.98;;;1.60;;
20545;SDS011;10431;50.228;9.112;2023-11-18T03:00:29;2.03;;;1.50;;
20545;SDS011;10431;50.228;9.112;2023-11-18T03:02:55;1.60;;;1.50;;
20545;SDS011;10431;50.228;9.112;2023-11-18T03:05:21;1.98;;;1.70;;
20545;SDS011;10431;50.228;9.112;2023-11-18T03:07:47;2.25;;;1.60;;
20545;SDS011;10431;50.228;9.112;2023-11-18T03:10:19;1.83;;;1.52;;
20545;SDS011;10431;50.228;9.112;2023-11-18T03:12:47;2.78;;;1.70;;
20545;SDS011;10431;50.228;9.112;2023-11-18T03:15:18;1.80;;;1.60;;
20545;SDS011;10431;50.228;9.112;2023-11-18T03:17:48;1.33;;;1.23;;
20545;SDS011;10431;50.228;9.112;2023-11-18T03:20:15;2.05;;;1.50;;
20545;SDS011;10431;50.228;9.112;2023-11-18T03:22:43;1.40;;;1.30;;
20545;SDS011;10431;50.228;9.112;2023-11-18T03:25:11;1.40;;;1.30;;
20545;SDS011;10431;50.228;9.112;2023-11-18T03:27:40;1.85;;;1.42;;
20545;SDS011;10431;50.228;9.112;2023-11-18T03:30:07;1.67;;;1.45;;
20545;SDS011;10431;50.228;9.112;2023-11-18T03:32:34;1.48;;;1.38;;
20545;SDS011;10431;50.228;9.112;2023-11-18T03:35:02;1.92;;;1.60;;
20545;SDS011;10431;50.228;9.112;2023-11-18T03:37:30;3.83;;;1.48;;
20545;SDS011;10431;50.228;9.112;2023-11-18T03:39:56;2.17;;;1.40;;
20545;SDS011;10431;50.228;9.112;2023-11-18T03:42:23;1.50;;;1.40;;
20545;SDS011;10431;50.228;9.112;2023-11-18T03:44:49;2.65;;;1.55;;
20545;SDS011;10431;50.228;9.112;2023-11-18T03:47:15;1.73;;;1.60;;
20545;SDS011;10431;50.228;9.112;2023-11-18T03:49:41;2.90;;;1.50;;
20545;SDS011;10431;50.228;9.112;2023-11-18T03:52:07;1.70;;;1.50;;
20545;SDS011;10431;50.228;9.112;2023-11-18T03:54:34;2.35;;;1.35;;
20545;SDS011;10431;50.228;9.112;2023-11-18T03:57:00;1.77;;;1.38;;
20545;SDS011;10431;50.228;9.112;2023-11-18T03:59:26;1.95;;;1.50;;
20545;SDS011;10431;50.228;9.112;2023-11-18T04:01:52;1.67;;;1.50;;
20545;SDS011;10431;50.228;9.112;2023-11-18T04:04:18;2.30;;;1.50;;
20545;SDS011;10431;50.228;9.112;2023-11-18T04:06:45;2.13;;;1.40;;
20545;SDS011;10431;50.228;9.112;2023-11-18T04:09:12;2.33;;;1.40;;
20545;SDS011;10431;50.228;9.112;2023-11-18T04:11:38;2.17;;;1.50;;
20545;SDS011;10431;50.228;9.112;2023-11-18T04:14:04;3.17;;;1.40;;
20545;SDS011;10431;50.228;9.112;2023-11-18T04:16:31;2.03;;;1.52;;
20545;SDS011;10431;50.228;9.112;2023-11-18T04:18:57;1.90;;;1.70;;
20545;SDS011;10431;50.228;9.112;2023-11-18T04:21:23;1.85;;;1.55;;
20545;SDS011;10431;50.228;9.112;2023-11-18T04:23:49;1.85;;;1.58;;
20545;SDS011;10431;50.228;9.112;2023-11-18T04:26:15;2.28;;;1.60;;
20545;SDS011;10431;50.228;9.112;2023-11-18T04:28:42;1.40;;;1.30;;
20545;SDS011;10431;50.228;9.112;2023-11-18T04:31:08;1.88;;;1.40;;
20545;SDS011;10431;50.228;9.112;2023-11-18T04:33:34;2.28;;;1.40;;
20545;SDS011;10431;50.228;9.112;2023-11-18T04:36:00;1.45;;;1.35;;
20545;SDS011;10431;50.228;9.112;2023-11-18T04:38:27;1.45;;;1.30;;
20545;SDS011;10431;50.228;9.112;2023-11-18T04:40:53;1.63;;;1.40;;
20545;SDS011;10431;50.228;9.112;2023-11-18T04:43:20;1.30;;;1.20;;
20545;SDS011;10431;50.228;9.112;2023-11-18T04:45:47;1.63;;;1.48;;
20545;SDS011;10431;50.228;9.112;2023-11-18T04:48:13;1.33;;;1.23;;
20545;SDS011;10431;50.228;9.112;2023-11-18T04:50:41;1.92;;;1.40;;
20545;SDS011;10431;50.228;9.112;2023-11-18T04:53:07;2.80;;;1.58;;
20545;SDS011;10431;50.228;9.112;2023-11-18T04:55:36;1.50;;;1.40;;
20545;SDS011;10431;50.228;9.112;2023-11-18T04:58:03;2.05;;;1.35;;
20545;SDS011;10431;50.228;9.112;2023-11-18T05:00:37;3.63;;;1.50;;
20545;SDS011;10431;50.228;9.112;2023-11-18T05:03:04;1.25;;;1.10;;
20545;SDS011;10431;50.228;9.112;2023-11-18T05:05:37;1.48;;;1.20;;
20545;SDS011;10431;50.228;9.112;2023-11-18T05:08:04;1.48;;;1.38;;
20545;SDS011;10431;50.228;9.112;2023-11-18T05:10:35;1.23;;;1.13;;
20545;SDS011;10431;50.228;9.112;2023-11-18T05:13:03;2.03;;;1.30;;
20545;SDS011;10431;50.228;9.112;2023-11-18T05:15:29;1.35;;;1.23;;
20545;SDS011;10431;50.228;9.112;2023-11-18T05:17:57;1.52;;;1.40;;
20545;SDS011;10431;50.228;9.112;2023-11-18T05:20:23;1.50;;;1.20;;
20545;SDS011;10431;50.228;9.112;2023-11-18T05:22:49;1.38;;;1.20;;
20545;SDS011;10431;50.228;9.112;2023-11-18T05:25:15;1.67;;;1.27;;
20545;SDS011;10431;50.228;9.112;2023-11-18T05:27:41;2.40;;;1.20;;
20545;SDS011;10431;50.228;9.112;2023-11-18T05:30:09;1.33;;;1.23;;
20545;SDS011;10431;50.228;9.112;2023-11-18T05:32:36;1.60;;;1.50;;
20545;SDS011;10431;50.228;9.112;2023-11-18T05:35:03;1.52;;;1.42;;
20545;SDS011;10431;50.228;9.112;2023-11-18T05:37:30;1.85;;;1.60;;
20545;SDS011;10431;50.228;9.112;2023-11-18T05:40:01;1.38;;;1.25;;
20545;SDS011;10431;50.228;9.112;2023-11-18T05:42:35;1.13;;;1.02;;
20545;SDS011;10431;50.228;9.112;2023-11-18T05:45:03;1.30;;;1.10;;
20545;SDS011;10431;50.228;9.112;2023-11-18T05:47:30;1.20;;;1.10;;
20545;SDS011;10431;50.228;9.112;2023-11-18T05:49:56;1.45;;;1.35;;
20545;SDS011;10431;50.228;9.112;2023-11-18T05:52:23;1.40;;;1.30;;
20545;SDS011;10431;50.228;9.112;2023-11-18T05:54:52;1.58;;;1.48;;
20545;SDS011;10431;50.228;9.112;2023-11-18T05:57:18;1.58;;;1.23;;
20545;SDS011;10431;50.228;9.112;2023-11-18T05:59:44;2.47;;;1.40;;
20545;SDS011;10431;50.228;9.112;2023-11-18T06:02:14;1.30;;;1.20;;
20545;SDS011;10431;50.228;9.112;2023-11-18T06:04:44;1.15;;;1.10;;
20545;SDS011;10431;50.228;9.112;2023-11-18T06:07:10;1.27;;;1.17;;
20545;SDS011;10431;50.228;9.112;2023-11-18T06:09:41;1.33;;;1.23;;
20545;SDS011;10431;50.228;9.112;2023-11-18T06:12:09;1.50;;;1.40;;
20545;SDS011;10431;50.228;9.112;2023-11-18T06:14:36;1.52;;;1.38;;
20545;SDS011;10431;50.228;9.112;2023-11-18T06:17:03;2.25;;;1.40;;
20545;SDS011;10431;50.228;9.112;2023-11-18T06:19:29;1.30;;;1.20;;
20545;SDS011;10431;50.228;9.112;2023-11-18T06:21:56;1.38;;;1.10;;
20545;SDS011;10431;50.228;9.112;2023-11-18T06:24:22;1.30;;;1.20;;
20545;SDS011;10431;50.228;9.112;2023-11-18T06:26:48;1.52;;;1.40;;
20545;SDS011;10431;50.228;9.112;2023-11-18T06:29:15;1.30;;;1.20;;
20545;SDS011;10431;50.228;9.112;2023-11-18T06:31:41;2.67;;;1.30;;
20545;SDS011;10431;50.228;9.112;2023-11-18T06:34:08;1.50;;;1.15;;
20545;SDS011;10431;50.228;9.112;2023-11-18T06:36:34;1.20;;;1.10;;
20545;SDS011;10431;50.228;9.112;2023-11-18T06:39:00;1.88;;;1.42;;
20545;SDS011;10431;50.228;9.112;2023-11-18T06:41:27;1.38;;;1.20;;
20545;SDS011;10431;50.228;9.112;2023-11-18T06:43:59;1.52;;;1.40;;
20545;SDS011;10431;50.228;9.112;2023-11-18T06:46:35;1.15;;;1.05;;
20545;SDS011;10431;50.228;9.112;2023-11-18T06:49:03;1.30;;;1.20;;
20545;SDS011;10431;50.228;9.112;2023-11-18T06:51:30;8.02;;;4.75;;
20545;SDS011;10431;50.228;9.112;2023-11-18T06:54:00;9.00;;;5.43;;
20545;SDS011;10431;50.228;9.112;2023-11-18T06:56:34;8.30;;;4.75;;
20545;SDS011;10431;50.228;9.112;2023-11-18T06:59:05;9.82;;;4.50;;
20545;SDS011;10431;50.228;9.112;2023-11-18T07:01:35;6.22;;;4.30;;
20545;SDS011;10431;50.228;9.112;2023-11-18T07:04:02;6.38;;;3.95;;
20545;SDS011;10431;50.228;9.112;2023-11-18T07:06:28;6.90;;;3.60;;
20545;SDS011;10431;50.228;9.112;2023-11-18T07:08:54;5.15;;;2.88;;
20545;SDS011;10431;50.228;9.112;2023-11-18T07:11:26;6.53;;;3.50;;
20545;SDS011;10431;50.228;9.112;2023-11-18T07:13:53;6.53;;;2.97;;
20545;SDS011;10431;50.228;9.112;2023-11-18T07:16:25;10.02;;;2.70;;
20545;SDS011;10431;50.228;9.112;2023-11-18T07:18:51;4.82;;;2.65;;
20545;SDS011;10431;50.228;9.112;2023-11-18T07:21:18;4.20;;;2.22;;
20545;SDS011;10431;50.228;9.112;2023-11-18T07:23:45;5.85;;;2.38;;
20545;SDS011;10431;50.228;9.112;2023-11-18T07:26:11;5.68;;;2.85;;
20545;SDS011;10431;50.228;9.112;2023-11-18T07:28:39;3.22;;;2.15;;
20545;SDS011;10431;50.228;9.112;2023-11-18T07:31:06;3.25;;;2.25;;
20545;SDS011;10431;50.228;9.112;2023-11-18T07:33:33;10.88;;;2.30;;
20545;SDS011;10431;50.228;9.112;2023-11-18T07:35:59;9.07;;;2.35;;
20545;SDS011;10431;50.228;9.112;2023-11-18T07:38:26;7.82;;;2.35;;
20545;SDS011;10431;50.228;9.112;2023-11-18T07:40:53;4.28;;;2.28;;
20545;SDS011;10431;50.228;9.112;2023-11-18T07:43:25;11.02;;;2.30;;
20545;SDS011;10431;50.228;9.112;2023-11-18T07:45:52;5.70;;;2.03;;
20545;SDS011;10431;50.228;9.112;2023-11-18T07:48:19;9.88;;;2.35;;
20545;SDS011;10431;50.228;9.112;2023-11-18T07:50:46;5.03;;;2.17;;
20545;SDS011;10431;50.228;9.112;2023-11-18T07:53:13;5.40;;;2.22;;
20545;SDS011;10431;50.228;9.112;2023-11-18T07:55:39;4.18;;;1.92;;
20545;SDS011;10431;50.228;9.112;2023-11-18T07:58:06;3.33;;;1.90;;
20545;SDS011;10431;50.228;9.112;2023-11-18T08:00:39;7.43;;;2.13;;
20545;SDS011;10431;50.228;9.112;2023-11-18T08:03:11;5.45;;;2.17;;
20545;SDS011;10431;50.228;9.112;2023-11-18T08:05:42;7.15;;;1.80;;
20545;SDS011;10431;50.228;9.112;2023-11-18T08:08:10;5.90;;;1.98;;
20545;SDS011;10431;50.228;9.112;2023-11-18T08:10:37;4.82;;;2.00;;
20545;SDS011;10431;50.228;9.112;2023-11-18T08:13:07;5.82;;;1.90;;
20545;SDS011;10431;50.228;9.112;2023-11-18T08:15:34;3.75;;;1.90;;
20545;SDS011;10431;50.228;9.112;2023-11-18T08:18:03;5.47;;;2.00;;
20545;SDS011;10431;50.228;9.112;2023-11-18T08:20:29;3.10;;;1.85;;
20545;SDS011;10431;50.228;9.112;2023-11-18T08:22:56;5.72;;;2.08;;
20545;SDS011;10431;50.228;9.112;2023-11-18T08:25:22;5.88;;;1.80;;
20545;SDS011;10431;50.228;9.112;2023-11-18T08:27:48;3.55;;;2.20;;
20545;SDS011;10431;50.228;9.112;2023-11-18T08:30:14;6.35;;;1.80;;
20545;SDS011;10431;50.228;9.112;2023-11-18T08:32:44;4.60;;;1.90;;
20545;SDS011;10431;50.228;9.112;2023-11-18T08:35:12;3.17;;;2.00;;
20545;SDS011;10431;50.228;9.112;2023-11-18T08:37:41;2.63;;;1.80;;
20545;SDS011;10431;50.228;9.112;2023-11-18T08:40:09;5.75;;;2.10;;
20545;SDS011;10431;50.228;9.112;2023-11-18T08:42:47;5.53;;;2.13;;
20545;SDS011;10431;50.228;9.112;2023-11-18T08:45:18;5.10;;;1.65;;
20545;SDS011;10431;50.228;9.112;2023-11-18T08:47:55;3.20;;;1.83;;
20545;SDS011;10431;50.228;9.112;2023-11-18T08:50:23;3.60;;;1.80;;
20545;SDS011;10431;50.228;9.112;2023-11-18T08:52:50;3.40;;;1.67;;
20545;SDS011;10431;50.228;9.112;2023-11-18T08:55:27;2.42;;;1.50;;
20545;SDS011;10431;50.228;9.112;2023-11-18T08:58:13;4.40;;;1.85;;
20545;SDS011;10431;50.228;9.112;2023-11-18T09:00:49;2.40;;;1.80;;
20545;SDS011;10431;50.228;9.112;2023-11-18T09:03:20;4.45;;;2.10;;
20545;SDS011;10431;50.228;9.112;2023-11-18T09:05:51;2.58;;;2.00;;
20545;SDS011;10431;50.228;9.112;2023-11-18T09:08:27;4.15;;;2.00;;
20545;SDS011;10431;50.228;9.112;2023-11-18T09:11:09;3.72;;;2.38;;
20545;SDS011;10431;50.228;9.112;2023-11-18T09:13:44;3.25;;;2.10;;
20545;SDS011;10431;50.228;9.112;2023-11-18T09:16:17;4.30;;;2.00;;
20545;SDS011;10431;50.228;9.112;2023-11-18T09:18:43;3.15;;;1.80;;
20545;SDS011;10431;50.228;9.112;2023-11-18T09:21:13;7.70;;;2.80;;
20545;SDS011;10431;50.228;9.112;2023-11-18T09:23:45;6.47;;;3.03;;
20545;SDS011;10431;50.228;9.112;2023-11-18T09:26:13;8.52;;;3.53;;
20545;SDS011;10431;50.228;9.112;2023-11-18T09:28:40;9.48;;;4.60;;
20545;SDS011;10431;50.228;9.112;2023-11-18T09:31:06;11.57;;;3.92;;
20545;SDS011;10431;50.228;9.112;2023-11-18T09:33:37;8.48;;;4.15;;
20545;SDS011;10431;50.228;9.112;2023-11-18T09:36:06;14.95;;;5.57;;
20545;SDS011;10431;50.228;9.112;2023-11-18T09:38:34;19.80;;;7.07;;
20545;SDS011;10431;50.228;9.112;2023-11-18T09:41:02;9.07;;;5.95;;
20545;SDS011;10431;50.228;9.112;2023-11-18T09:43:33;12.60;;;5.75;;
20545;SDS011;10431;50.228;9.112;2023-11-18T09:46:09;17.27;;;6.43;;
20545;SDS011;10431;50.228;9.112;2023-11-18T09:49:27;11.57;;;6.00;;
20545;SDS011;10431;50.228;9.112;2023-11-18T09:52:32;15.20;;;5.07;;
20545;SDS011;10431;50.228;9.112;2023-11-18T09:55:02;22.23;;;6.80;;
20545;SDS011;10431;50.228;9.112;2023-11-18T09:57:40;14.57;;;6.30;;
20545;SDS011;10431;50.228;9.112;2023-11-18T10:00:11;17.27;;;5.97;;
20545;SDS011;10431;50.228;9.112;2023-11-18T10:02:49;10.18;;;5.50;;
20545;SDS011;10431;50.228;9.112;2023-11-18T10:05:16;11.20;;;6.22;;
20545;SDS011;10431;50.228;9.112;2023-11-18T10:07:46;16.67;;;5.93;;
20545;SDS011;10431;50.228;9.112;2023-11-18T10:10:13;13.85;;;5.05;;
20545;SDS011;10431;50.228;9.112;2023-11-18T10:12:42;16.25;;;5.15;;
20545;SDS011;10431;50.228;9.112;2023-11-18T10:15:13;11.25;;;5.00;;
20545;SDS011;10431;50.228;9.112;2023-11-18T10:17:45;10.65;;;5.10;;
20545;SDS011;10431;50.228;9.112;2023-11-18T10:23:05;10.93;;;5.65;;
20545;SDS011;10431;50.228;9.112;2023-11-18T10:25:36;7.95;;;5.22;;
20545;SDS011;10431;50.228;9.112;2023-11-18T10:28:07;13.02;;;4.85;;
20545;SDS011;10431;50.228;9.112;2023-11-18T10:30:44;8.57;;;4.22;;
20545;SDS011;10431;50.228;9.112;2023-11-18T10:33:14;7.18;;;4.22;;
20545;SDS011;10431;50.228;9.112;2023-11-18T10:35:48;6.45;;;3.97;;
20545;SDS011;10431;50.228;9.112;2023-11-18T10:38:21;15.45;;;4.10;;
20545;SDS011;10431;50.228;9.112;2023-11-18T10:40:54;15.13;;;4.13;;
20545;SDS011;10431;50.228;9.112;2023-11-18T10:43:22;14.73;;;4.20;;
20545;SDS011;10431;50.228;9.112;2023-11-18T10:46:03;17.83;;;4.50;;
20545;SDS011;10431;50.228;9.112;2023-11-18T10:48:39;15.90;;;4.13;;
20545;SDS011;10431;50.228;9.112;2023-11-18T10:51:13;16.92;;;4.45;;
20545;SDS011;10431;50.228;9.112;2023-11-18T10:53:42;26.92;;;5.10;;
20545;SDS011;10431;50.228;9.112;2023-11-18T10:56:19;15.85;;;4.60;;
20545;SDS011;10431;50.228;9.112;2023-11-18T10:59:10;27.77;;;4.60;;
20545;SDS011;10431;50.228;9.112;2023-11-18T11:01:42;21.23;;;6.85;;
20545;SDS011;10431;50.228;9.112;2023-11-18T11:04:15;13.77;;;4.57;;
20545;SDS011;10431;50.228;9.112;2023-11-18T11:06:46;19.10;;;4.82;;
20545;SDS011;10431;50.228;9.112;2023-11-18T11:09:20;27.27;;;5.35;;
20545;SDS011;10431;50.228;9.112;2023-11-18T11:14:23;15.45;;;4.03;;
20545;SDS011;10431;50.228;9.112;2023-11-18T11:17:03;17.15;;;3.90;;
20545;SDS011;10431;50.228;9.112;2023-11-18T11:20:04;9.50;;;4.00;;
20545;SDS011;10431;50.228;9.112;2023-11-18T11:28:21;13.57;;;3.53;;
20545;SDS011;10431;50.228;9.112;2023-11-18T11:36:29;9.38;;;3.65;;
20545;SDS011;10431;50.228;9.112;2023-11-18T11:38:59;14.80;;;3.30;;
20545;SDS011;10431;50.228;9.112;2023-11-18T11:41:27;8.27;;;3.58;;
20545;SDS011;10431;50.228;9.112;2023-11-18T11:43:55;15.63;;;3.40;;
20545;SDS011;10431;50.228;9.112;2023-11-18T11:46:26;10.65;;;3.10;;
20545;SDS011;10431;50.228;9.112;2023-11-18T11:49:01;10.65;;;3.13;;
20545;SDS011;10431;50.228;9.112;2023-11-18T11:51:44;7.00;;;2.95;;
20545;SDS011;10431;50.228;9.112;2023-11-18T11:54:21;9.63;;;3.65;;
20545;SDS011;10431;50.228;9.112;2023-11-18T11:56:55;7.20;;;3.00;;
20545;SDS011;10431;50.228;9.112;2023-11-18T12:02:13;10.43;;;3.15;;
20545;SDS011;10431;50.228;9.112;2023-11-18T12:04:45;8.13;;;3.15;;
20545;SDS011;10431;50.228;9.112;2023-11-18T12:07:12;10.75;;;2.90;;
20545;SDS011;10431;50.228;9.112;2023-11-18T12:09:41;8.23;;;3.35;;
20545;SDS011;10431;50.228;9.112;2023-11-18T12:12:22;6.03;;;3.17;;
20545;SDS011;10431;50.228;9.112;2023-11-18T12:14:55;7.70;;;3.00;;
20545;SDS011;10431;50.228;9.112;2023-11-18T12:17:26;8.30;;;3.10;;
20545;SDS011;10431;50.228;9.112;2023-11-18T12:19:57;8.02;;;2.97;;
20545;SDS011;10431;50.228;9.112;2023-11-18T12:22:24;18.20;;;3.08;;
20545;SDS011;10431;50.228;9.112;2023-11-18T12:49:08;5.05;;;3.10;;
20545;SDS011;10431;50.228;9.112;2023-11-18T12:51:41;6.68;;;3.50;;
20545;SDS011;10431;50.228;9.112;2023-11-18T12:54:13;9.88;;;2.90;;
20545;SDS011;10431;50.228;9.112;2023-11-18T12:56:41;6.60;;;2.75;;
20545;SDS011;10431;50.228;9.112;2023-11-18T12:59:14;4.20;;;2.50;;
20545;SDS011;10431;50.228;9.112;2023-11-18T13:01:43;6.45;;;2.65;;
20545;SDS011;10431;50.228;9.112;2023-11-18T13:04:17;10.77;;;3.00;;
20545;SDS011;10431;50.228;9.112;2023-11-18T13:06:46;5.18;;;2.92;;
20545;SDS011;10431;50.228;9.112;2023-11-18T13:09:14;8.20;;;2.97;;
20545;SDS011;10431;50.228;9.112;2023-11-18T13:11:59;7.93;;;2.67;;
20545;SDS011;10431;50.228;9.112;2023-11-18T13:14:30;5.47;;;3.08;;
20545;SDS011;10431;50.228;9.112;2023-11-18T13:17:02;6.25;;;2.88;;
20545;SDS011;10431;50.228;9.112;2023-11-18T13:19:32;5.28;;;2.70;;
20545;SDS011;10431;50.228;9.112;2023-11-18T13:22:01;7.05;;;2.38;;
20545;SDS011;10431;50.228;9.112;2023-11-18T13:24:32;4.38;;;2.60;;
20545;SDS011;10431;50.228;9.112;2023-11-18T13:27:00;5.88;;;2.65;;
20545;SDS011;10431;50.228;9.112;2023-11-18T13:29:30;5.00;;;2.38;;
20545;SDS011;10431;50.228;9.112;2023-11-18T13:31:57;5.82;;;2.70;;
20545;SDS011;10431;50.228;9.112;2023-11-18T13:34:26;4.30;;;2.85;;
20545;SDS011;10431;50.228;9.112;2023-11-18T13:36:53;7.25;;;2.67;;
20545;SDS011;10431;50.228;9.112;2023-11-18T13:39:20;6.30;;;2.85;;
20545;SDS011;10431;50.228;9.112;2023-11-18T13:41:48;5.10;;;2.72;;
20545;SDS011;10431;50.228;9.112;2023-11-18T13:44:31;4.05;;;2.53;;
20545;SDS011;10431;50.228;9.112;2023-11-18T13:47:01;9.43;;;2.60;;
20545;SDS011;10431;50.228;9.112;2023-11-18T13:49:31;5.80;;;2.80;;
20545;SDS011;10431;50.228;9.112;2023-11-18T13:52:00;4.97;;;2.40;;
20545;SDS011;10431;50.228;9.112;2023-11-18T13:54:28;4.05;;;2.38;;
20545;SDS011;10431;50.228;9.112;2023-11-18T13:56:55;3.58;;;2.50;;
20545;SDS011;10431;50.228;9.112;2023-11-18T13:59:27;5.55;;;2.63;;
20545;SDS011;10431;50.228;9.112;2023-11-18T14:01:53;5.18;;;2.28;;
20545;SDS011;10431;50.228;9.112;2023-11-18T14:04:23;11.13;;;2.75;;
20545;SDS011;10431;50.228;9.112;2023-11-18T14:06:53;8.88;;;2.70;;
20545;SDS011;10431;50.228;9.112;2023-11-18T14:09:23;7.63;;;2.60;;
20545;SDS011;10431;50.228;9.112;2023-11-18T14:11:53;4.35;;;2.55;;
20545;SDS011;10431;50.228;9.112;2023-11-18T14:14:25;5.50;;;2.47;;
20545;SDS011;10431;50.228;9.112;2023-11-18T14:16:53;4.80;;;2.33;;
20545;SDS011;10431;50.228;9.112;2023-11-18T14:19:26;7.13;;;3.13;;
20545;SDS011;10431;50.228;9.112;2023-11-18T14:21:56;5.00;;;2.90;;
20545;SDS011;10431;50.228;9.112;2023-11-18T14:24:22;5.38;;;2.85;;
20545;SDS011;10431;50.228;9.112;2023-11-18T14:26:56;4.97;;;2.90;;
20545;SDS011;10431;50.228;9.112;2023-11-18T14:29:22;5.35;;;2.65;;
20545;SDS011;10431;50.228;9.112;2023-11-18T14:31:49;8.88;;;2.45;;
20545;SDS011;10431;50.228;9.112;2023-11-18T14:34:15;7.82;;;3.22;;
20545;SDS011;10431;50.228;9.112;2023-11-18T14:36:41;5.40;;;2.67;;
20545;SDS011;10431;50.228;9.112;2023-11-18T14:39:11;7.68;;;3.22;;
20545;SDS011;10431;50.228;9.112;2023-11-18T14:41:40;5.88;;;2.97;;
20545;SDS011;10431;50.228;9.112;2023-11-18T14:44:06;5.70;;;2.83;;
20545;SDS011;10431;50.228;9.112;2023-11-18T14:46:35;9.77;;;2.60;;
20545;SDS011;10431;50.228;9.112;2023-11-18T14:49:04;8.43;;;2.53;;
20545;SDS011;10431;50.228;9.112;2023-11-18T14:51:33;9.10;;;2.65;;
20545;SDS011;10431;50.228;9.112;2023-11-18T14:53:59;8.23;;;3.38;;
20545;SDS011;10431;50.228;9.112;2023-11-18T14:56:26;5.45;;;2.70;;
20545;SDS011;10431;50.228;9.112;2023-11-18T14:58:52;6.38;;;2.65;;
20545;SDS011;10431;50.228;9.112;2023-11-18T15:01:18;6.10;;;2.53;;
20545;SDS011;10431;50.228;9.112;2023-11-18T15:03:45;7.72;;;2.70;;
20545;SDS011;10431;50.228;9.112;2023-11-18T15:06:14;6.30;;;2.55;;
20545;SDS011;10431;50.228;9.112;2023-11-18T15:08:41;5.75;;;2.47;;
20545;SDS011;10431;50.228;9.112;2023-11-18T15:11:08;5.38;;;2.58;;
20545;SDS011;10431;50.228;9.112;2023-11-18T15:13:35;4.22;;;2.38;;
20545;SDS011;10431;50.228;9.112;2023-11-18T15:16:03;5.47;;;2.47;;
20545;SDS011;10431;50.228;9.112;2023-11-18T15:18:29;5.85;;;2.22;;
20545;SDS011;10431;50.228;9.112;2023-11-18T15:20:56;3.20;;;2.55;;
20545;SDS011;10431;50.228;9.112;2023-11-18T15:23:22;3.55;;;2.20;;
20545;SDS011;10431;50.228;9.112;2023-11-18T15:25:48;5.13;;;2.58;;
20545;SDS011;10431;50.228;9.112;2023-11-18T15:28:18;4.38;;;2.33;;
20545;SDS011;10431;50.228;9.112;2023-11-18T15:30:44;11.25;;;3.72;;
20545;SDS011;10431;50.228;9.112;2023-11-18T15:33:11;3.78;;;2.50;;
20545;SDS011;10431;50.228;9.112;2023-11-18T15:35:39;5.75;;;2.58;;
20545;SDS011;10431;50.228;9.112;2023-11-18T15:38:09;3.38;;;2.42;;
20545;SDS011;10431;50.228;9.112;2023-11-18T15:40:42;2.97;;;2.10;;
20545;SDS011;10431;50.228;9.112;2023-11-18T15:43:08;6.45;;;2.40;;